sensor_id;sensor_type;location;lat;lon;timestamp;P1;durP1;ratioP1;P2;durP2;ratioP2
17858;SDS011;35426;30.698;104.050;2023-03-23T00:02:27;62.50;;;14.23;;
17858;SDS011;35426;30.698;104.050;2023-03-23T00:05:07;55.97;;;13.67;;
17858;SDS011;35426;30.698;104.050;2023-03-23T00:07:44;44.87;;;12.27;;
17858;SDS011;35426;30.698;104.050;2023-03-23T00:10:20;46.90;;;13.00;;
17858;SDS011;35426;30.698;104.050;2023-03-23T00:12:59;55.43;;;14.07;;
17858;SDS011;35426;30.698;104.050;2023-03-23T00:15:38;49.53;;;12.37;;
17858;SDS011;35426;30.698;104.050;2023-03-23T00:18:17;52.07;;;13.13;;
17858;SDS011;35426;30.698;104.050;2023-03-23T00:20:53;49.10;;;13.47;;
17858;SDS011;35426;30.698;104.050;2023-03-23T00:23:28;55.10;;;14.07;;
17858;SDS011;35426;30.698;104.050;2023-03-23T00:26:04;50.73;;;13.37;;
17858;SDS011;35426;30.698;104.050;2023-03-23T00:28:46;53.63;;;13.50;;
17858;SDS011;35426;30.698;104.050;2023-03-23T00:31:20;46.10;;;12.90;;
17858;SDS011;35426;30.698;104.050;2023-03-23T00:34:01;46.03;;;13.30;;
17858;SDS011;35426;30.698;104.050;2023-03-23T00:36:36;46.47;;;13.47;;
17858;SDS011;35426;30.698;104.050;2023-03-23T00:39:25;54.43;;;14.20;;
17858;SDS011;35426;30.698;104.050;2023-03-23T00:42:05;54.10;;;14.63;;
17858;SDS011;35426;30.698;104.050;2023-03-23T00:44:44;51.53;;;14.60;;
17858;SDS011;35426;30.698;104.050;2023-03-23T00:47:28;52.27;;;14.97;;
17858;SDS011;35426;30.698;104.050;2023-03-23T00:50:05;57.10;;;14.80;;
17858;SDS011;35426;30.698;104.050;2023-03-23T00:52:43;45.37;;;14.87;;
17858;SDS011;35426;30.698;104.050;2023-03-23T00:55:20;58.03;;;15.70;;
17858;SDS011;35426;30.698;104.050;2023-03-23T00:58:03;52.20;;;14.73;;
17858;SDS011;35426;30.698;104.050;2023-03-23T01:00:50;56.23;;;15.17;;
17858;SDS011;35426;30.698;104.050;2023-03-23T01:03:29;62.67;;;16.13;;
17858;SDS011;35426;30.698;104.050;2023-03-23T01:06:10;64.13;;;16.50;;
17858;SDS011;35426;30.698;104.050;2023-03-23T01:08:46;57.77;;;15.07;;
17858;SDS011;35426;30.698;104.050;2023-03-23T01:11:25;60.90;;;14.53;;
17858;SDS011;35426;30.698;104.050;2023-03-23T01:14:03;52.60;;;14.87;;
17858;SDS011;35426;30.698;104.050;2023-03-23T01:16:44;65.80;;;15.07;;
17858;SDS011;35426;30.698;104.050;2023-03-23T01:19:22;50.60;;;15.53;;
17858;SDS011;35426;30.698;104.050;2023-03-23T01:21:57;47.87;;;13.03;;
17858;SDS011;35426;30.698;104.050;2023-03-23T01:24:35;63.30;;;16.10;;
17858;SDS011;35426;30.698;104.050;2023-03-23T01:27:10;56.20;;;15.00;;
17858;SDS011;35426;30.698;104.050;2023-03-23T01:29:45;48.67;;;13.90;;
17858;SDS011;35426;30.698;104.050;2023-03-23T01:32:26;45.37;;;14.13;;
17858;SDS011;35426;30.698;104.050;2023-03-23T01:35:02;62.10;;;14.60;;
17858;SDS011;35426;30.698;104.050;2023-03-23T01:37:46;59.80;;;14.00;;
17858;SDS011;35426;30.698;104.050;2023-03-23T01:40:23;59.13;;;14.53;;
17858;SDS011;35426;30.698;104.050;2023-03-23T01:42:58;50.93;;;14.83;;
17858;SDS011;35426;30.698;104.050;2023-03-23T01:45:36;51.87;;;13.73;;
17858;SDS011;35426;30.698;104.050;2023-03-23T01:48:21;47.83;;;12.87;;
17858;SDS011;35426;30.698;104.050;2023-03-23T01:51:04;53.77;;;14.20;;
17858;SDS011;35426;30.698;104.050;2023-03-23T01:53:48;41.90;;;12.20;;
17858;SDS011;35426;30.698;104.050;2023-03-23T01:56:31;46.63;;;12.00;;
17858;SDS011;35426;30.698;104.050;2023-03-23T01:59:13;41.67;;;11.50;;
17858;SDS011;35426;30.698;104.050;2023-03-23T02:02:02;42.10;;;12.10;;
17858;SDS011;35426;30.698;104.050;2023-03-23T02:04:44;42.83;;;11.03;;
17858;SDS011;35426;30.698;104.050;2023-03-23T02:07:26;44.80;;;12.27;;
17858;SDS011;35426;30.698;104.050;2023-03-23T02:10:19;39.70;;;12.17;;
17858;SDS011;35426;30.698;104.050;2023-03-23T02:12:54;44.40;;;12.60;;
17858;SDS011;35426;30.698;104.050;2023-03-23T02:15:32;41.17;;;11.37;;
17858;SDS011;35426;30.698;104.050;2023-03-23T02:18:25;41.53;;;11.77;;
17858;SDS011;35426;30.698;104.050;2023-03-23T02:27:33;38.23;;;12.23;;
17858;SDS011;35426;30.698;104.050;2023-03-23T02:30:30;35.87;;;12.47;;
17858;SDS011;35426;30.698;104.050;2023-03-23T02:33:20;41.40;;;11.40;;
17858;SDS011;35426;30.698;104.050;2023-03-23T02:36:17;31.63;;;11.83;;
17858;SDS011;35426;30.698;104.050;2023-03-23T02:38:59;39.27;;;12.17;;
17858;SDS011;35426;30.698;104.050;2023-03-23T02:41:38;44.00;;;12.33;;
17858;SDS011;35426;30.698;104.050;2023-03-23T02:44:15;42.23;;;12.30;;
17858;SDS011;35426;30.698;104.050;2023-03-23T02:46:55;36.70;;;10.97;;
17858;SDS011;35426;30.698;104.050;2023-03-23T02:49:42;38.20;;;11.80;;
17858;SDS011;35426;30.698;104.050;2023-03-23T02:52:26;38.57;;;11.67;;
17858;SDS011;35426;30.698;104.050;2023-03-23T02:55:06;40.80;;;11.60;;
17858;SDS011;35426;30.698;104.050;2023-03-23T02:57:42;40.13;;;12.03;;
17858;SDS011;35426;30.698;104.050;2023-03-23T03:00:18;43.30;;;11.50;;
17858;SDS011;35426;30.698;104.050;2023-03-23T03:02:55;38.93;;;12.17;;
17858;SDS011;35426;30.698;104.050;2023-03-23T03:05:43;42.90;;;13.37;;
17858;SDS011;35426;30.698;104.050;2023-03-23T03:08:30;39.23;;;12.50;;
17858;SDS011;35426;30.698;104.050;2023-03-23T03:11:14;41.27;;;12.17;;
17858;SDS011;35426;30.698;104.050;2023-03-23T03:13:55;39.90;;;12.83;;
17858;SDS011;35426;30.698;104.050;2023-03-23T03:16:40;38.07;;;13.00;;
17858;SDS011;35426;30.698;104.050;2023-03-23T03:19:20;50.07;;;13.57;;
17858;SDS011;35426;30.698;104.050;2023-03-23T03:22:02;40.33;;;13.43;;
17858;SDS011;35426;30.698;104.050;2023-03-23T03:24:42;48.00;;;13.80;;
17858;SDS011;35426;30.698;104.050;2023-03-23T03:27:19;35.23;;;12.70;;
17858;SDS011;35426;30.698;104.050;2023-03-23T03:30:09;40.33;;;13.50;;
17858;SDS011;35426;30.698;104.050;2023-03-23T03:32:53;52.40;;;14.23;;
17858;SDS011;35426;30.698;104.050;2023-03-23T03:35:28;38.70;;;13.30;;
17858;SDS011;35426;30.698;104.050;2023-03-23T03:38:10;39.63;;;13.03;;
17858;SDS011;35426;30.698;104.050;2023-03-23T03:40:55;41.40;;;13.53;;
17858;SDS011;35426;30.698;104.050;2023-03-23T03:43:32;50.77;;;15.07;;
17858;SDS011;35426;30.698;104.050;2023-03-23T03:46:08;41.97;;;14.47;;
17858;SDS011;35426;30.698;104.050;2023-03-23T03:48:46;43.97;;;15.10;;
17858;SDS011;35426;30.698;104.050;2023-03-23T03:51:26;41.57;;;14.13;;
17858;SDS011;35426;30.698;104.050;2023-03-23T03:54:04;33.63;;;13.00;;
17858;SDS011;35426;30.698;104.050;2023-03-23T03:56:40;44.00;;;13.00;;
17858;SDS011;35426;30.698;104.050;2023-03-23T03:59:33;35.50;;;11.53;;
17858;SDS011;35426;30.698;104.050;2023-03-23T04:02:38;29.40;;;11.50;;
17858;SDS011;35426;30.698;104.050;2023-03-23T04:05:18;35.70;;;11.70;;
17858;SDS011;35426;30.698;104.050;2023-03-23T04:07:59;42.07;;;12.07;;
17858;SDS011;35426;30.698;104.050;2023-03-23T04:10:48;37.80;;;11.53;;
17858;SDS011;35426;30.698;104.050;2023-03-23T04:13:36;30.97;;;10.63;;
17858;SDS011;35426;30.698;104.050;2023-03-23T04:16:22;29.17;;;9.93;;
17858;SDS011;35426;30.698;104.050;2023-03-23T04:19:17;31.53;;;9.33;;
17858;SDS011;35426;30.698;104.050;2023-03-23T04:21:52;28.63;;;8.87;;
17858;SDS011;35426;30.698;104.050;2023-03-23T04:24:32;28.37;;;9.23;;
17858;SDS011;35426;30.698;104.050;2023-03-23T04:27:26;33.27;;;10.20;;
17858;SDS011;35426;30.698;104.050;2023-03-23T04:30:07;27.27;;;10.17;;
17858;SDS011;35426;30.698;104.050;2023-03-23T04:32:56;28.20;;;10.37;;
17858;SDS011;35426;30.698;104.050;2023-03-23T04:35:31;38.47;;;10.20;;
17858;SDS011;35426;30.698;104.050;2023-03-23T04:38:33;32.90;;;11.37;;
17858;SDS011;35426;30.698;104.050;2023-03-23T04:41:16;35.40;;;11.50;;
17858;SDS011;35426;30.698;104.050;2023-03-23T04:44:17;37.27;;;11.17;;
17858;SDS011;35426;30.698;104.050;2023-03-23T04:47:04;29.77;;;11.13;;
17858;SDS011;35426;30.698;104.050;2023-03-23T04:49:53;32.80;;;12.10;;
17858;SDS011;35426;30.698;104.050;2023-03-23T04:52:38;28.53;;;9.60;;
17858;SDS011;35426;30.698;104.050;2023-03-23T04:55:18;38.23;;;11.37;;
17858;SDS011;35426;30.698;104.050;2023-03-23T04:57:58;29.23;;;10.47;;
17858;SDS011;35426;30.698;104.050;2023-03-23T05:00:47;30.93;;;10.53;;
17858;SDS011;35426;30.698;104.050;2023-03-23T05:03:36;29.83;;;10.70;;
17858;SDS011;35426;30.698;104.050;2023-03-23T05:06:12;32.17;;;9.77;;
17858;SDS011;35426;30.698;104.050;2023-03-23T05:08:48;29.43;;;10.30;;
17858;SDS011;35426;30.698;104.050;2023-03-23T05:11:24;27.27;;;10.03;;
17858;SDS011;35426;30.698;104.050;2023-03-23T05:13:58;21.80;;;10.07;;
17858;SDS011;35426;30.698;104.050;2023-03-23T05:16:38;26.83;;;10.93;;
17858;SDS011;35426;30.698;104.050;2023-03-23T05:19:17;25.00;;;10.30;;
17858;SDS011;35426;30.698;104.050;2023-03-23T05:21:59;33.63;;;11.53;;
17858;SDS011;35426;30.698;104.050;2023-03-23T05:24:45;24.73;;;11.27;;
17858;SDS011;35426;30.698;104.050;2023-03-23T05:27:22;28.30;;;11.33;;
17858;SDS011;35426;30.698;104.050;2023-03-23T05:30:04;27.70;;;11.13;;
17858;SDS011;35426;30.698;104.050;2023-03-23T05:32:50;28.63;;;11.30;;
17858;SDS011;35426;30.698;104.050;2023-03-23T05:35:40;34.20;;;11.77;;
17858;SDS011;35426;30.698;104.050;2023-03-23T05:38:18;26.00;;;12.17;;
17858;SDS011;35426;30.698;104.050;2023-03-23T05:41:03;29.87;;;12.33;;
17858;SDS011;35426;30.698;104.050;2023-03-23T05:43:47;34.40;;;12.07;;
17858;SDS011;35426;30.698;104.050;2023-03-23T05:46:34;26.77;;;12.27;;
17858;SDS011;35426;30.698;104.050;2023-03-23T05:49:15;26.10;;;12.10;;
17858;SDS011;35426;30.698;104.050;2023-03-23T05:51:54;28.87;;;12.30;;
17858;SDS011;35426;30.698;104.050;2023-03-23T05:54:43;26.93;;;12.40;;
17858;SDS011;35426;30.698;104.050;2023-03-23T05:57:30;33.80;;;11.70;;
17858;SDS011;35426;30.698;104.050;2023-03-23T06:00:14;34.40;;;12.83;;
17858;SDS011;35426;30.698;104.050;2023-03-23T06:03:00;26.63;;;12.50;;
17858;SDS011;35426;30.698;104.050;2023-03-23T06:05:49;25.93;;;11.93;;
17858;SDS011;35426;30.698;104.050;2023-03-23T06:08:36;29.50;;;12.83;;
17858;SDS011;35426;30.698;104.050;2023-03-23T06:11:11;30.33;;;13.07;;
17858;SDS011;35426;30.698;104.050;2023-03-23T06:14:06;25.90;;;11.93;;
17858;SDS011;35426;30.698;104.050;2023-03-23T06:16:48;29.97;;;12.40;;
17858;SDS011;35426;30.698;104.050;2023-03-23T06:19:24;27.47;;;11.60;;
17858;SDS011;35426;30.698;104.050;2023-03-23T06:22:10;28.53;;;11.77;;
17858;SDS011;35426;30.698;104.050;2023-03-23T06:25:07;25.57;;;12.03;;
17858;SDS011;35426;30.698;104.050;2023-03-23T06:27:46;34.03;;;11.83;;
17858;SDS011;35426;30.698;104.050;2023-03-23T06:30:23;27.97;;;11.20;;
17858;SDS011;35426;30.698;104.050;2023-03-23T06:33:00;32.20;;;12.00;;
17858;SDS011;35426;30.698;104.050;2023-03-23T06:35:58;22.37;;;11.20;;
17858;SDS011;35426;30.698;104.050;2023-03-23T06:38:49;23.43;;;10.53;;
17858;SDS011;35426;30.698;104.050;2023-03-23T06:41:42;28.47;;;10.50;;
17858;SDS011;35426;30.698;104.050;2023-03-23T06:44:19;25.33;;;10.13;;
17858;SDS011;35426;30.698;104.050;2023-03-23T06:46:58;21.67;;;9.80;;
17858;SDS011;35426;30.698;104.050;2023-03-23T06:49:36;25.10;;;9.50;;
17858;SDS011;35426;30.698;104.050;2023-03-23T06:52:22;29.17;;;10.60;;
17858;SDS011;35426;30.698;104.050;2023-03-23T06:55:10;19.70;;;10.40;;
17858;SDS011;35426;30.698;104.050;2023-03-23T06:57:57;22.10;;;9.83;;
17858;SDS011;35426;30.698;104.050;2023-03-23T07:00:33;20.67;;;9.67;;
17858;SDS011;35426;30.698;104.050;2023-03-23T07:03:15;24.50;;;9.07;;
17858;SDS011;35426;30.698;104.050;2023-03-23T07:05:56;23.93;;;9.60;;
17858;SDS011;35426;30.698;104.050;2023-03-23T07:08:37;19.97;;;8.63;;
17858;SDS011;35426;30.698;104.050;2023-03-23T07:11:30;19.43;;;7.40;;
17858;SDS011;35426;30.698;104.050;2023-03-23T07:14:17;19.80;;;7.30;;
17858;SDS011;35426;30.698;104.050;2023-03-23T07:16:57;15.77;;;6.97;;
17858;SDS011;35426;30.698;104.050;2023-03-23T07:19:42;15.07;;;5.77;;
17858;SDS011;35426;30.698;104.050;2023-03-23T07:22:28;15.30;;;5.87;;
17858;SDS011;35426;30.698;104.050;2023-03-23T07:25:17;16.57;;;6.20;;
17858;SDS011;35426;30.698;104.050;2023-03-23T07:27:56;22.03;;;6.40;;
17858;SDS011;35426;30.698;104.050;2023-03-23T07:30:33;14.53;;;5.63;;
17858;SDS011;35426;30.698;104.050;2023-03-23T07:33:11;19.73;;;5.67;;
17858;SDS011;35426;30.698;104.050;2023-03-23T07:35:49;16.83;;;5.53;;
17858;SDS011;35426;30.698;104.050;2023-03-23T07:38:31;10.43;;;4.93;;
17858;SDS011;35426;30.698;104.050;2023-03-23T07:41:09;13.70;;;5.33;;
17858;SDS011;35426;30.698;104.050;2023-03-23T07:43:48;16.70;;;5.53;;
17858;SDS011;35426;30.698;104.050;2023-03-23T07:46:42;15.00;;;5.43;;
17858;SDS011;35426;30.698;104.050;2023-03-23T07:49:21;10.23;;;4.50;;
17858;SDS011;35426;30.698;104.050;2023-03-23T07:52:14;11.50;;;4.87;;
17858;SDS011;35426;30.698;104.050;2023-03-23T07:54:52;14.07;;;4.47;;
17858;SDS011;35426;30.698;104.050;2023-03-23T07:57:44;15.37;;;4.67;;
17858;SDS011;35426;30.698;104.050;2023-03-23T08:00:23;13.30;;;5.07;;
17858;SDS011;35426;30.698;104.050;2023-03-23T08:03:05;15.93;;;4.60;;
17858;SDS011;35426;30.698;104.050;2023-03-23T08:06:15;15.03;;;4.40;;
17858;SDS011;35426;30.698;104.050;2023-03-23T08:09:13;10.77;;;4.00;;
17858;SDS011;35426;30.698;104.050;2023-03-23T08:12:08;13.37;;;4.17;;
17858;SDS011;35426;30.698;104.050;2023-03-23T08:15:18;9.23;;;4.10;;
17858;SDS011;35426;30.698;104.050;2023-03-23T08:18:26;13.13;;;4.03;;
17858;SDS011;35426;30.698;104.050;2023-03-23T08:21:26;8.63;;;4.00;;
17858;SDS011;35426;30.698;104.050;2023-03-23T08:24:19;12.13;;;3.70;;
17858;SDS011;35426;30.698;104.050;2023-03-23T08:27:14;13.23;;;4.30;;
17858;SDS011;35426;30.698;104.050;2023-03-23T08:30:14;13.63;;;4.67;;
17858;SDS011;35426;30.698;104.050;2023-03-23T08:33:15;11.73;;;4.13;;
17858;SDS011;35426;30.698;104.050;2023-03-23T08:36:23;12.43;;;4.53;;
17858;SDS011;35426;30.698;104.050;2023-03-23T08:39:15;11.20;;;4.10;;
17858;SDS011;35426;30.698;104.050;2023-03-23T08:42:09;13.03;;;4.23;;
17858;SDS011;35426;30.698;104.050;2023-03-23T08:44:52;10.97;;;4.00;;
17858;SDS011;35426;30.698;104.050;2023-03-23T08:47:36;10.37;;;4.23;;
17858;SDS011;35426;30.698;104.050;2023-03-23T08:50:33;7.43;;;3.90;;
17858;SDS011;35426;30.698;104.050;2023-03-23T08:53:38;12.20;;;3.90;;
17858;SDS011;35426;30.698;104.050;2023-03-23T08:56:23;12.10;;;4.40;;
17858;SDS011;35426;30.698;104.050;2023-03-23T08:59:18;11.63;;;4.30;;
17858;SDS011;35426;30.698;104.050;2023-03-23T09:02:16;13.60;;;3.93;;
17858;SDS011;35426;30.698;104.050;2023-03-23T09:05:14;10.07;;;3.93;;
17858;SDS011;35426;30.698;104.050;2023-03-23T09:08:21;11.67;;;4.03;;
17858;SDS011;35426;30.698;104.050;2023-03-23T09:11:00;10.40;;;3.90;;
17858;SDS011;35426;30.698;104.050;2023-03-23T09:13:38;9.90;;;3.83;;
17858;SDS011;35426;30.698;104.050;2023-03-23T09:16:15;10.90;;;4.23;;
17858;SDS011;35426;30.698;104.050;2023-03-23T09:18:53;8.57;;;4.27;;
17858;SDS011;35426;30.698;104.050;2023-03-23T09:21:28;10.53;;;4.47;;
17858;SDS011;35426;30.698;104.050;2023-03-23T09:24:05;15.40;;;4.23;;
17858;SDS011;35426;30.698;104.050;2023-03-23T09:26:49;15.47;;;4.53;;
17858;SDS011;35426;30.698;104.050;2023-03-23T09:29:44;9.60;;;4.17;;
17858;SDS011;35426;30.698;104.050;2023-03-23T09:32:31;8.17;;;4.20;;
17858;SDS011;35426;30.698;104.050;2023-03-23T09:35:11;14.00;;;5.10;;
17858;SDS011;35426;30.698;104.050;2023-03-23T09:37:50;12.33;;;4.70;;
17858;SDS011;35426;30.698;104.050;2023-03-23T09:40:38;8.33;;;4.07;;
17858;SDS011;35426;30.698;104.050;2023-03-23T09:46:35;6.67;;;3.60;;
17858;SDS011;35426;30.698;104.050;2023-03-23T09:49:33;11.90;;;3.70;;
17858;SDS011;35426;30.698;104.050;2023-03-23T09:52:13;9.57;;;3.10;;
17858;SDS011;35426;30.698;104.050;2023-03-23T09:54:49;8.90;;;3.23;;
17858;SDS011;35426;30.698;104.050;2023-03-23T09:57:28;8.77;;;3.23;;
17858;SDS011;35426;30.698;104.050;2023-03-23T10:00:11;10.43;;;3.40;;
17858;SDS011;35426;30.698;104.050;2023-03-23T10:02:51;7.57;;;3.10;;
17858;SDS011;35426;30.698;104.050;2023-03-23T10:05:36;8.43;;;2.97;;
17858;SDS011;35426;30.698;104.050;2023-03-23T10:08:17;5.60;;;2.90;;
17858;SDS011;35426;30.698;104.050;2023-03-23T10:11:03;4.47;;;2.77;;
17858;SDS011;35426;30.698;104.050;2023-03-23T10:13:58;7.17;;;2.60;;
17858;SDS011;35426;30.698;104.050;2023-03-23T10:16:48;6.00;;;2.80;;
17858;SDS011;35426;30.698;104.050;2023-03-23T10:19:34;8.53;;;3.23;;
17858;SDS011;35426;30.698;104.050;2023-03-23T10:22:20;9.67;;;3.20;;
17858;SDS011;35426;30.698;104.050;2023-03-23T10:25:03;6.77;;;3.23;;
17858;SDS011;35426;30.698;104.050;2023-03-23T10:27:49;8.50;;;3.23;;
17858;SDS011;35426;30.698;104.050;2023-03-23T10:30:40;7.10;;;3.00;;
17858;SDS011;35426;30.698;104.050;2023-03-23T10:33:20;7.93;;;3.20;;
17858;SDS011;35426;30.698;104.050;2023-03-23T10:35:59;6.20;;;3.07;;
17858;SDS011;35426;30.698;104.050;2023-03-23T10:38:43;5.17;;;2.80;;
17858;SDS011;35426;30.698;104.050;2023-03-23T10:41:28;11.70;;;3.07;;
17858;SDS011;35426;30.698;104.050;2023-03-23T10:44:09;6.90;;;3.07;;
17858;SDS011;35426;30.698;104.050;2023-03-23T10:46:58;12.17;;;2.83;;
17858;SDS011;35426;30.698;104.050;2023-03-23T10:49:37;7.33;;;2.67;;
17858;SDS011;35426;30.698;104.050;2023-03-23T10:52:23;5.67;;;2.40;;
17858;SDS011;35426;30.698;104.050;2023-03-23T10:55:04;4.53;;;2.33;;
17858;SDS011;35426;30.698;104.050;2023-03-23T10:58:02;8.30;;;2.40;;
17858;SDS011;35426;30.698;104.050;2023-03-23T11:00:44;5.10;;;2.57;;
17858;SDS011;35426;30.698;104.050;2023-03-23T11:03:33;6.23;;;2.30;;
17858;SDS011;35426;30.698;104.050;2023-03-23T11:06:18;6.53;;;2.67;;
17858;SDS011;35426;30.698;104.050;2023-03-23T11:09:10;6.17;;;2.53;;
17858;SDS011;35426;30.698;104.050;2023-03-23T11:11:51;9.17;;;2.50;;
17858;SDS011;35426;30.698;104.050;2023-03-23T11:14:29;10.83;;;2.90;;
17858;SDS011;35426;30.698;104.050;2023-03-23T11:17:21;7.70;;;3.03;;
17858;SDS011;35426;30.698;104.050;2023-03-23T11:20:09;8.17;;;2.40;;
17858;SDS011;35426;30.698;104.050;2023-03-23T11:22:48;7.57;;;2.60;;
17858;SDS011;35426;30.698;104.050;2023-03-23T11:25:24;12.43;;;2.90;;
17858;SDS011;35426;30.698;104.050;2023-03-23T11:28:08;7.53;;;2.70;;
17858;SDS011;35426;30.698;104.050;2023-03-23T11:30:44;8.17;;;2.90;;
17858;SDS011;35426;30.698;104.050;2023-03-23T11:33:29;7.87;;;2.87;;
17858;SDS011;35426;30.698;104.050;2023-03-23T11:36:16;6.53;;;2.40;;
17858;SDS011;35426;30.698;104.050;2023-03-23T11:39:16;7.33;;;2.77;;
17858;SDS011;35426;30.698;104.050;2023-03-23T11:41:56;6.00;;;2.70;;
17858;SDS011;35426;30.698;104.050;2023-03-23T11:44:42;7.07;;;2.77;;
17858;SDS011;35426;30.698;104.050;2023-03-23T11:47:22;6.60;;;2.20;;
17858;SDS011;35426;30.698;104.050;2023-03-23T11:50:08;3.87;;;2.20;;
17858;SDS011;35426;30.698;104.050;2023-03-23T11:52:55;8.90;;;2.30;;
17858;SDS011;35426;30.698;104.050;2023-03-23T11:55:57;6.80;;;2.50;;
17858;SDS011;35426;30.698;104.050;2023-03-23T11:58:41;6.03;;;2.40;;
17858;SDS011;35426;30.698;104.050;2023-03-23T12:01:24;5.73;;;2.60;;
17858;SDS011;35426;30.698;104.050;2023-03-23T12:04:39;8.40;;;2.40;;
17858;SDS011;35426;30.698;104.050;2023-03-23T12:07:28;7.40;;;2.40;;
17858;SDS011;35426;30.698;104.050;2023-03-23T12:10:29;7.60;;;2.70;;
17858;SDS011;35426;30.698;104.050;2023-03-23T12:13:18;10.73;;;3.10;;
17858;SDS011;35426;30.698;104.050;2023-03-23T12:19:34;8.57;;;3.10;;
17858;SDS011;35426;30.698;104.050;2023-03-23T12:22:22;6.00;;;2.80;;
17858;SDS011;35426;30.698;104.050;2023-03-23T12:25:18;8.73;;;2.83;;
17858;SDS011;35426;30.698;104.050;2023-03-23T12:28:26;11.33;;;3.00;;
17858;SDS011;35426;30.698;104.050;2023-03-23T12:31:22;10.80;;;3.50;;
17858;SDS011;35426;30.698;104.050;2023-03-23T12:37:04;10.47;;;3.60;;
17858;SDS011;35426;30.698;104.050;2023-03-23T12:43:15;8.13;;;3.00;;
17858;SDS011;35426;30.698;104.050;2023-03-23T12:46:14;4.20;;;2.67;;
17858;SDS011;35426;30.698;104.050;2023-03-23T12:49:04;10.17;;;2.97;;
17858;SDS011;35426;30.698;104.050;2023-03-23T12:51:49;8.13;;;2.87;;
17858;SDS011;35426;30.698;104.050;2023-03-23T12:54:34;8.00;;;2.70;;
17858;SDS011;35426;30.698;104.050;2023-03-23T12:57:20;12.63;;;3.00;;
17858;SDS011;35426;30.698;104.050;2023-03-23T13:00:06;7.53;;;2.90;;
17858;SDS011;35426;30.698;104.050;2023-03-23T13:02:51;10.33;;;3.30;;
17858;SDS011;35426;30.698;104.050;2023-03-23T13:05:40;9.77;;;3.50;;
17858;SDS011;35426;30.698;104.050;2023-03-23T13:08:25;12.80;;;3.30;;
17858;SDS011;35426;30.698;104.050;2023-03-23T13:11:05;6.30;;;3.07;;
17858;SDS011;35426;30.698;104.050;2023-03-23T13:13:54;10.27;;;3.90;;
17858;SDS011;35426;30.698;104.050;2023-03-23T13:16:39;11.07;;;3.90;;
17858;SDS011;35426;30.698;104.050;2023-03-23T13:19:24;10.70;;;4.40;;
17858;SDS011;35426;30.698;104.050;2023-03-23T13:22:18;14.43;;;3.80;;
17858;SDS011;35426;30.698;104.050;2023-03-23T13:25:15;13.50;;;3.97;;
17858;SDS011;35426;30.698;104.050;2023-03-23T13:28:00;9.17;;;3.97;;
17858;SDS011;35426;30.698;104.050;2023-03-23T13:30:40;9.37;;;4.03;;
17858;SDS011;35426;30.698;104.050;2023-03-23T13:33:28;15.13;;;4.50;;
17858;SDS011;35426;30.698;104.050;2023-03-23T13:36:10;12.60;;;4.03;;
17858;SDS011;35426;30.698;104.050;2023-03-23T13:38:51;18.10;;;3.97;;
17858;SDS011;35426;30.698;104.050;2023-03-23T13:41:27;10.87;;;4.00;;
17858;SDS011;35426;30.698;104.050;2023-03-23T13:44:42;14.47;;;4.27;;
17858;SDS011;35426;30.698;104.050;2023-03-23T13:47:39;8.90;;;4.47;;
17858;SDS011;35426;30.698;104.050;2023-03-23T13:50:43;10.57;;;5.20;;
17858;SDS011;35426;30.698;104.050;2023-03-23T13:53:29;13.17;;;5.30;;
17858;SDS011;35426;30.698;104.050;2023-03-23T13:56:40;11.37;;;4.40;;
17858;SDS011;35426;30.698;104.050;2023-03-23T13:59:46;12.00;;;4.53;;
17858;SDS011;35426;30.698;104.050;2023-03-23T14:02:29;16.03;;;5.87;;
17858;SDS011;35426;30.698;104.050;2023-03-23T14:08:39;11.07;;;5.40;;
17858;SDS011;35426;30.698;104.050;2023-03-23T14:12:01;17.47;;;5.20;;
17858;SDS011;35426;30.698;104.050;2023-03-23T14:14:55;16.43;;;5.80;;
17858;SDS011;35426;30.698;104.050;2023-03-23T14:17:40;18.93;;;6.20;;
17858;SDS011;35426;30.698;104.050;2023-03-23T14:20:21;15.10;;;5.40;;
17858;SDS011;35426;30.698;104.050;2023-03-23T14:23:04;10.63;;;4.47;;
17858;SDS011;35426;30.698;104.050;2023-03-23T14:26:10;11.97;;;4.80;;
17858;SDS011;35426;30.698;104.050;2023-03-23T14:28:52;13.80;;;4.37;;
17858;SDS011;35426;30.698;104.050;2023-03-23T14:31:34;10.53;;;4.53;;
17858;SDS011;35426;30.698;104.050;2023-03-23T14:34:19;14.73;;;4.60;;
17858;SDS011;35426;30.698;104.050;2023-03-23T14:37:10;11.80;;;4.83;;
17858;SDS011;35426;30.698;104.050;2023-03-23T14:39:53;15.17;;;4.43;;
17858;SDS011;35426;30.698;104.050;2023-03-23T14:42:46;17.43;;;5.63;;
17858;SDS011;35426;30.698;104.050;2023-03-23T14:45:27;12.47;;;4.90;;
17858;SDS011;35426;30.698;104.050;2023-03-23T14:48:04;12.63;;;4.73;;
17858;SDS011;35426;30.698;104.050;2023-03-23T14:50:51;11.87;;;4.87;;
17858;SDS011;35426;30.698;104.050;2023-03-23T14:53:35;14.70;;;4.67;;
17858;SDS011;35426;30.698;104.050;2023-03-23T14:56:13;9.20;;;4.07;;
17858;SDS011;35426;30.698;104.050;2023-03-23T14:59:02;8.93;;;4.23;;
17858;SDS011;35426;30.698;104.050;2023-03-23T15:01:44;10.80;;;4.53;;
17858;SDS011;35426;30.698;104.050;2023-03-23T15:04:28;13.03;;;4.93;;
17858;SDS011;35426;30.698;104.050;2023-03-23T15:07:11;10.40;;;4.10;;
17858;SDS011;35426;30.698;104.050;2023-03-23T15:09:55;9.67;;;3.63;;
17858;SDS011;35426;30.698;104.050;2023-03-23T15:12:33;10.47;;;4.40;;
17858;SDS011;35426;30.698;104.050;2023-03-23T15:15:21;11.37;;;4.20;;
17858;SDS011;35426;30.698;104.050;2023-03-23T15:18:01;9.77;;;3.57;;
17858;SDS011;35426;30.698;104.050;2023-03-23T15:21:10;9.80;;;4.10;;
17858;SDS011;35426;30.698;104.050;2023-03-23T15:23:57;6.30;;;3.73;;
17858;SDS011;35426;30.698;104.050;2023-03-23T15:26:41;11.77;;;3.77;;
17858;SDS011;35426;30.698;104.050;2023-03-23T15:29:20;8.87;;;3.80;;
17858;SDS011;35426;30.698;104.050;2023-03-23T15:32:13;10.03;;;3.40;;
17858;SDS011;35426;30.698;104.050;2023-03-23T15:34:55;10.07;;;3.40;;
17858;SDS011;35426;30.698;104.050;2023-03-23T15:37:39;11.77;;;3.87;;
17858;SDS011;35426;30.698;104.050;2023-03-23T15:40:17;19.00;;;6.30;;
17858;SDS011;35426;30.698;104.050;2023-03-23T15:43:05;11.07;;;5.20;;
17858;SDS011;35426;30.698;104.050;2023-03-23T15:45:55;13.43;;;5.63;;
17858;SDS011;35426;30.698;104.050;2023-03-23T15:48:48;13.10;;;4.97;;
17858;SDS011;35426;30.698;104.050;2023-03-23T15:51:38;11.27;;;4.70;;
17858;SDS011;35426;30.698;104.050;2023-03-23T15:54:19;9.67;;;4.57;;
17858;SDS011;35426;30.698;104.050;2023-03-23T15:56:59;11.00;;;4.63;;
17858;SDS011;35426;30.698;104.050;2023-03-23T15:59:42;10.30;;;4.20;;
17858;SDS011;35426;30.698;104.050;2023-03-23T16:02:22;11.37;;;4.83;;
17858;SDS011;35426;30.698;104.050;2023-03-23T16:05:05;10.53;;;5.63;;
17858;SDS011;35426;30.698;104.050;2023-03-23T16:07:49;14.87;;;5.80;;
17858;SDS011;35426;30.698;104.050;2023-03-23T16:10:34;12.20;;;5.67;;
17858;SDS011;35426;30.698;104.050;2023-03-23T16:13:14;19.40;;;5.77;;